sensor_id;sensor_type;location;lat;lon;timestamp;temperature;humidity
41547;DHT22;27271;45.412;10.852;2023-03-20T00:02:55;7.30;61.50
41547;DHT22;27271;45.412;10.852;2023-03-20T00:06:19;7.20;61.80
41547;DHT22;27271;45.412;10.852;2023-03-20T00:09:42;7.10;67.90
41547;DHT22;27271;45.412;10.852;2023-03-20T00:13:05;7.10;77.90
41547;DHT22;27271;45.412;10.852;2023-03-20T00:16:34;7.00;91.40
41547;DHT22;27271;45.412;10.852;2023-03-20T00:19:56;7.00;81.00
41547;DHT22;27271;45.412;10.852;2023-03-20T00:23:18;6.90;93.10
41547;DHT22;27271;45.412;10.852;2023-03-20T00:26:42;6.90;96.90
41547;DHT22;27271;45.412;10.852;2023-03-20T00:33:42;6.90;99.90
41547;DHT22;27271;45.412;10.852;2023-03-20T00:37:04;6.80;99.90
41547;DHT22;27271;45.412;10.852;2023-03-20T00:40:30;6.80;99.90
41547;DHT22;27271;45.412;10.852;2023-03-20T00:43:59;6.70;99.90
41547;DHT22;27271;45.412;10.852;2023-03-20T00:47:23;6.70;99.90
41547;DHT22;27271;45.412;10.852;2023-03-20T00:50:47;6.70;99.90
41547;DHT22;27271;45.412;10.852;2023-03-20T00:54:15;6.60;99.50
41547;DHT22;27271;45.412;10.852;2023-03-20T00:57:51;6.60;99.90
41547;DHT22;27271;45.412;10.852;2023-03-20T01:01:25;6.60;99.90
41547;DHT22;27271;45.412;10.852;2023-03-20T01:04:47;6.60;99.90
41547;DHT22;27271;45.412;10.852;2023-03-20T01:08:17;6.70;99.90
41547;DHT22;27271;45.412;10.852;2023-03-20T01:11:53;6.80;99.90
41547;DHT22;27271;45.412;10.852;2023-03-20T01:15:21;6.90;99.90
41547;DHT22;27271;45.412;10.852;2023-03-20T01:18:44;6.90;99.90
41547;DHT22;27271;45.412;10.852;2023-03-20T01:22:07;7.00;99.90
41547;DHT22;27271;45.412;10.852;2023-03-20T01:25:31;7.20;99.90
41547;DHT22;27271;45.412;10.852;2023-03-20T01:28:54;7.30;99.90
41547;DHT22;27271;45.412;10.852;2023-03-20T01:32:18;7.40;99.90
41547;DHT22;27271;45.412;10.852;2023-03-20T01:35:45;7.60;99.90
41547;DHT22;27271;45.412;10.852;2023-03-20T01:39:09;7.70;92.00
41547;DHT22;27271;45.412;10.852;2023-03-20T01:42:34;7.90;53.00
41547;DHT22;27271;45.412;10.852;2023-03-20T01:53:40;8.20;1.00
41547;DHT22;27271;45.412;10.852;2023-03-20T01:57:11;8.30;1.00
41547;DHT22;27271;45.412;10.852;2023-03-20T02:00:39;8.40;1.00
41547;DHT22;27271;45.412;10.852;2023-03-20T02:04:08;8.50;1.00
41547;DHT22;27271;45.412;10.852;2023-03-20T02:07:46;8.60;99.90
41547;DHT22;27271;45.412;10.852;2023-03-20T02:11:12;8.60;99.90
41547;DHT22;27271;45.412;10.852;2023-03-20T02:14:37;8.70;99.90
41547;DHT22;27271;45.412;10.852;2023-03-20T02:18:21;8.70;99.90
41547;DHT22;27271;45.412;10.852;2023-03-20T02:44:39;8.70;99.90
41547;DHT22;27271;45.412;10.852;2023-03-20T02:48:12;8.60;82.70
41547;DHT22;27271;45.412;10.852;2023-03-20T02:52:20;8.60;33.70
41547;DHT22;27271;45.412;10.852;2023-03-20T02:55:51;8.50;46.00
41547;DHT22;27271;45.412;10.852;2023-03-20T02:59:34;8.50;49.50
41547;DHT22;27271;45.412;10.852;2023-03-20T03:03:10;8.50;1.00
41547;DHT22;27271;45.412;10.852;2023-03-20T03:06:42;8.40;7.30
41547;DHT22;27271;45.412;10.852;2023-03-20T03:10:30;8.40;1.00
41547;DHT22;27271;45.412;10.852;2023-03-20T03:13:56;8.40;42.40
41547;DHT22;27271;45.412;10.852;2023-03-20T03:17:23;8.40;93.50
41547;DHT22;27271;45.412;10.852;2023-03-20T03:20:50;8.40;99.90
41547;DHT22;27271;45.412;10.852;2023-03-20T03:28:28;8.50;99.90
41547;DHT22;27271;45.412;10.852;2023-03-20T03:31:55;8.50;99.90
41547;DHT22;27271;45.412;10.852;2023-03-20T03:35:20;8.40;99.90
41547;DHT22;27271;45.412;10.852;2023-03-20T03:38:55;8.30;99.90
41547;DHT22;27271;45.412;10.852;2023-03-20T03:42:35;8.20;99.90
41547;DHT22;27271;45.412;10.852;2023-03-20T03:46:03;8.20;1.00
41547;DHT22;27271;45.412;10.852;2023-03-20T03:49:29;8.20;1.00
41547;DHT22;27271;45.412;10.852;2023-03-20T03:53:00;8.20;1.00
41547;DHT22;27271;45.412;10.852;2023-03-20T03:56:25;8.20;1.00
41547;DHT22;27271;45.412;10.852;2023-03-20T03:59:50;8.10;1.00
41547;DHT22;27271;45.412;10.852;2023-03-20T04:03:14;8.10;1.00
41547;DHT22;27271;45.412;10.852;2023-03-20T04:06:37;8.20;1.00
41547;DHT22;27271;45.412;10.852;2023-03-20T04:10:00;8.20;44.30
41547;DHT22;27271;45.412;10.852;2023-03-20T04:13:22;8.20;60.70
41547;DHT22;27271;45.412;10.852;2023-03-20T04:16:46;8.10;21.60
41547;DHT22;27271;45.412;10.852;2023-03-20T04:20:10;8.00;36.50
41547;DHT22;27271;45.412;10.852;2023-03-20T04:23:33;7.90;26.00
41547;DHT22;27271;45.412;10.852;2023-03-20T04:26:56;7.80;99.90
41547;DHT22;27271;45.412;10.852;2023-03-20T04:30:18;7.60;75.60
41547;DHT22;27271;45.412;10.852;2023-03-20T04:33:59;7.50;48.90
41547;DHT22;27271;45.412;10.852;2023-03-20T04:37:23;7.30;93.60
41547;DHT22;27271;45.412;10.852;2023-03-20T04:40:59;7.20;77.50
41547;DHT22;27271;45.412;10.852;2023-03-20T04:44:22;7.10;75.70
41547;DHT22;27271;45.412;10.852;2023-03-20T04:47:44;7.00;99.90
41547;DHT22;27271;45.412;10.852;2023-03-20T04:51:09;6.90;99.90
41547;DHT22;27271;45.412;10.852;2023-03-20T04:54:43;6.80;99.90
41547;DHT22;27271;45.412;10.852;2023-03-20T04:58:06;6.80;99.90
41547;DHT22;27271;45.412;10.852;2023-03-20T05:01:29;6.70;99.90
41547;DHT22;27271;45.412;10.852;2023-03-20T05:04:51;6.60;99.90
41547;DHT22;27271;45.412;10.852;2023-03-20T05:08:14;6.60;99.90
41547;DHT22;27271;45.412;10.852;2023-03-20T05:11:38;6.50;99.90
41547;DHT22;27271;45.412;10.852;2023-03-20T05:15:04;6.60;99.90
41547;DHT22;27271;45.412;10.852;2023-03-20T05:18:45;6.70;99.90
41547;DHT22;27271;45.412;10.852;2023-03-20T05:22:31;6.80;99.90
41547;DHT22;27271;45.412;10.852;2023-03-20T05:26:05;6.90;99.90
41547;DHT22;27271;45.412;10.852;2023-03-20T05:29:51;7.00;99.90
41547;DHT22;27271;45.412;10.852;2023-03-20T05:33:24;7.00;99.90
41547;DHT22;27271;45.412;10.852;2023-03-20T05:37:02;6.90;99.90
41547;DHT22;27271;45.412;10.852;2023-03-20T05:40:41;6.90;99.90
41547;DHT22;27271;45.412;10.852;2023-03-20T05:44:28;6.90;99.90
41547;DHT22;27271;45.412;10.852;2023-03-20T05:48:05;6.80;99.90
41547;DHT22;27271;45.412;10.852;2023-03-20T05:51:33;6.70;99.90
41547;DHT22;27271;45.412;10.852;2023-03-20T05:55:09;6.60;99.90
41547;DHT22;27271;45.412;10.852;2023-03-20T05:58:51;6.60;99.90
41547;DHT22;27271;45.412;10.852;2023-03-20T06:02:42;6.50;99.90
41547;DHT22;27271;45.412;10.852;2023-03-20T06:06:30;6.60;99.90
41547;DHT22;27271;45.412;10.852;2023-03-20T06:09:52;6.70;99.90
41547;DHT22;27271;45.412;10.852;2023-03-20T06:13:15;7.00;99.90
41547;DHT22;27271;45.412;10.852;2023-03-20T06:16:37;7.30;99.90
41547;DHT22;27271;45.412;10.852;2023-03-20T06:19:59;7.70;99.90
41547;DHT22;27271;45.412;10.852;2023-03-20T06:23:23;8.00;99.90
41547;DHT22;27271;45.412;10.852;2023-03-20T06:26:46;8.50;99.90
41547;DHT22;27271;45.412;10.852;2023-03-20T06:30:09;8.80;99.90
41547;DHT22;27271;45.412;10.852;2023-03-20T06:33:34;8.90;99.90
41547;DHT22;27271;45.412;10.852;2023-03-20T06:36:57;9.10;99.90
41547;DHT22;27271;45.412;10.852;2023-03-20T06:40:20;9.00;99.90
41547;DHT22;27271;45.412;10.852;2023-03-20T06:43:43;9.00;76.70
41547;DHT22;27271;45.412;10.852;2023-03-20T06:47:07;9.00;55.20
41547;DHT22;27271;45.412;10.852;2023-03-20T06:50:29;9.20;94.50
41547;DHT22;27271;45.412;10.852;2023-03-20T06:53:52;9.40;21.20
41547;DHT22;27271;45.412;10.852;2023-03-20T06:57:19;9.80;26.30
41547;DHT22;27271;45.412;10.852;2023-03-20T07:00:42;10.10;1.00
41547;DHT22;27271;45.412;10.852;2023-03-20T07:04:04;10.30;99.90
41547;DHT22;27271;45.412;10.852;2023-03-20T07:07:35;10.80;99.90
41547;DHT22;27271;45.412;10.852;2023-03-20T07:10:59;12.10;99.90
41547;DHT22;27271;45.412;10.852;2023-03-20T07:14:26;13.70;1.00
41547;DHT22;27271;45.412;10.852;2023-03-20T07:17:55;15.40;99.90
41547;DHT22;27271;45.412;10.852;2023-03-20T07:21:22;16.60;3.60
41547;DHT22;27271;45.412;10.852;2023-03-20T07:24:46;17.50;1.00
41547;DHT22;27271;45.412;10.852;2023-03-20T07:28:18;17.70;1.00
41547;DHT22;27271;45.412;10.852;2023-03-20T07:31:46;18.20;1.00
41547;DHT22;27271;45.412;10.852;2023-03-20T07:35:16;19.10;1.00
41547;DHT22;27271;45.412;10.852;2023-03-20T07:38:38;19.50;1.00
41547;DHT22;27271;45.412;10.852;2023-03-20T07:42:04;19.70;1.00
41547;DHT22;27271;45.412;10.852;2023-03-20T07:45:36;19.40;1.00
41547;DHT22;27271;45.412;10.852;2023-03-20T07:48:59;19.10;1.00
41547;DHT22;27271;45.412;10.852;2023-03-20T07:52:21;19.20;1.00
41547;DHT22;27271;45.412;10.852;2023-03-20T07:55:43;19.20;1.00
41547;DHT22;27271;45.412;10.852;2023-03-20T07:59:05;19.10;1.00
41547;DHT22;27271;45.412;10.852;2023-03-20T08:02:27;18.90;1.00
41547;DHT22;27271;45.412;10.852;2023-03-20T08:05:50;19.40;1.00
41547;DHT22;27271;45.412;10.852;2023-03-20T08:09:13;19.60;1.00
41547;DHT22;27271;45.412;10.852;2023-03-20T08:12:35;20.30;1.00
41547;DHT22;27271;45.412;10.852;2023-03-20T08:15:57;21.20;1.00
41547;DHT22;27271;45.412;10.852;2023-03-20T08:19:19;22.00;1.00
41547;DHT22;27271;45.412;10.852;2023-03-20T08:22:41;22.30;1.00
41547;DHT22;27271;45.412;10.852;2023-03-20T08:26:04;21.00;1.00
41547;DHT22;27271;45.412;10.852;2023-03-20T08:29:26;21.50;1.00
41547;DHT22;27271;45.412;10.852;2023-03-20T08:32:48;22.10;1.00
41547;DHT22;27271;45.412;10.852;2023-03-20T08:36:10;22.60;1.00
41547;DHT22;27271;45.412;10.852;2023-03-20T08:39:37;23.10;1.00
41547;DHT22;27271;45.412;10.852;2023-03-20T08:43:03;23.50;1.00
41547;DHT22;27271;45.412;10.852;2023-03-20T08:46:26;23.60;1.00
41547;DHT22;27271;45.412;10.852;2023-03-20T08:49:48;22.80;1.00
41547;DHT22;27271;45.412;10.852;2023-03-20T08:53:10;21.80;1.00
41547;DHT22;27271;45.412;10.852;2023-03-20T08:56:32;22.00;1.00
41547;DHT22;27271;45.412;10.852;2023-03-20T08:59:54;22.50;1.00
41547;DHT22;27271;45.412;10.852;2023-03-20T09:03:18;23.00;1.00
41547;DHT22;27271;45.412;10.852;2023-03-20T09:06:41;23.30;1.00
41547;DHT22;27271;45.412;10.852;2023-03-20T09:10:04;23.10;1.00
41547;DHT22;27271;45.412;10.852;2023-03-20T09:13:27;22.30;1.00
41547;DHT22;27271;45.412;10.852;2023-03-20T09:16:49;23.30;1.00
41547;DHT22;27271;45.412;10.852;2023-03-20T09:20:11;23.60;1.00
41547;DHT22;27271;45.412;10.852;2023-03-20T09:23:33;23.10;1.00
41547;DHT22;27271;45.412;10.852;2023-03-20T09:26:56;23.40;1.00
41547;DHT22;27271;45.412;10.852;2023-03-20T09:30:18;20.80;1.00
41547;DHT22;27271;45.412;10.852;2023-03-20T09:33:40;19.90;1.00
41547;DHT22;27271;45.412;10.852;2023-03-20T09:37:02;20.30;1.00
41547;DHT22;27271;45.412;10.852;2023-03-20T09:40:37;19.90;1.00
41547;DHT22;27271;45.412;10.852;2023-03-20T09:48:23;21.20;1.00
41547;DHT22;27271;45.412;10.852;2023-03-20T09:51:59;20.20;1.00
41547;DHT22;27271;45.412;10.852;2023-03-20T09:55:30;20.40;1.00
41547;DHT22;27271;45.412;10.852;2023-03-20T09:58:59;20.30;1.00
41547;DHT22;27271;45.412;10.852;2023-03-20T10:03:02;20.00;1.00
41547;DHT22;27271;45.412;10.852;2023-03-20T10:06:25;21.60;1.00
41547;DHT22;27271;45.412;10.852;2023-03-20T10:09:47;21.40;1.00
41547;DHT22;27271;45.412;10.852;2023-03-20T10:13:27;21.90;1.00
41547;DHT22;27271;45.412;10.852;2023-03-20T10:20:32;21.40;1.00
41547;DHT22;27271;45.412;10.852;2023-03-20T10:24:05;21.20;1.00
41547;DHT22;27271;45.412;10.852;2023-03-20T10:27:45;21.90;1.00
41547;DHT22;27271;45.412;10.852;2023-03-20T10:35:07;21.00;1.00
41547;DHT22;27271;45.412;10.852;2023-03-20T10:39:00;21.50;1.00
41547;DHT22;27271;45.412;10.852;2023-03-20T10:42:21;21.30;1.00
41547;DHT22;27271;45.412;10.852;2023-03-20T10:46:21;21.70;1.00
41547;DHT22;27271;45.412;10.852;2023-03-20T10:49:52;21.90;1.00
41547;DHT22;27271;45.412;10.852;2023-03-20T10:53:26;21.60;1.00
41547;DHT22;27271;45.412;10.852;2023-03-20T10:56:52;21.80;1.00
41547;DHT22;27271;45.412;10.852;2023-03-20T11:00:20;22.00;1.00
41547;DHT22;27271;45.412;10.852;2023-03-20T11:03:43;21.20;1.00
41547;DHT22;27271;45.412;10.852;2023-03-20T11:07:26;21.20;1.00
41547;DHT22;27271;45.412;10.852;2023-03-20T11:10:58;20.80;1.00
41547;DHT22;27271;45.412;10.852;2023-03-20T11:14:24;21.00;1.00
41547;DHT22;27271;45.412;10.852;2023-03-20T11:18:13;21.00;1.00
41547;DHT22;27271;45.412;10.852;2023-03-20T11:21:55;20.20;1.00
41547;DHT22;27271;45.412;10.852;2023-03-20T11:25:31;20.60;1.00
41547;DHT22;27271;45.412;10.852;2023-03-20T11:28:58;20.70;1.00
41547;DHT22;27271;45.412;10.852;2023-03-20T11:32:33;20.40;1.00
41547;DHT22;27271;45.412;10.852;2023-03-20T11:35:58;20.50;1.00
41547;DHT22;27271;45.412;10.852;2023-03-20T11:39:30;21.10;1.00
41547;DHT22;27271;45.412;10.852;2023-03-20T11:46:25;20.60;1.00
41547;DHT22;27271;45.412;10.852;2023-03-20T11:49:54;20.20;1.00
41547;DHT22;27271;45.412;10.852;2023-03-20T11:56:56;19.70;1.00
41547;DHT22;27271;45.412;10.852;2023-03-20T12:00:39;19.20;1.00
41547;DHT22;27271;45.412;10.852;2023-03-20T12:04:10;18.50;1.00
41547;DHT22;27271;45.412;10.852;2023-03-20T12:07:34;18.20;1.00
41547;DHT22;27271;45.412;10.852;2023-03-20T12:11:11;18.50;1.00
41547;DHT22;27271;45.412;10.852;2023-03-20T12:18:10;18.90;1.00
41547;DHT22;27271;45.412;10.852;2023-03-20T12:21:51;19.80;1.00
41547;DHT22;27271;45.412;10.852;2023-03-20T12:25:23;19.80;1.00
41547;DHT22;27271;45.412;10.852;2023-03-20T12:35:48;18.60;1.00
41547;DHT22;27271;45.412;10.852;2023-03-20T12:39:24;18.10;1.00
41547;DHT22;27271;45.412;10.852;2023-03-20T12:42:55;17.70;1.00
41547;DHT22;27271;45.412;10.852;2023-03-20T12:46:34;17.80;1.00
41547;DHT22;27271;45.412;10.852;2023-03-20T12:57:15;18.20;1.00
41547;DHT22;27271;45.412;10.852;2023-03-20T13:01:05;18.20;1.00
41547;DHT22;27271;45.412;10.852;2023-03-20T13:04:50;18.00;1.00
41547;DHT22;27271;45.412;10.852;2023-03-20T13:15:59;19.10;1.00
41547;DHT22;27271;45.412;10.852;2023-03-20T13:19:48;19.00;1.00
41547;DHT22;27271;45.412;10.852;2023-03-20T13:23:12;18.80;1.00
41547;DHT22;27271;45.412;10.852;2023-03-20T13:37:27;18.00;1.00
41547;DHT22;27271;45.412;10.852;2023-03-20T13:41:00;18.40;1.00
41547;DHT22;27271;45.412;10.852;2023-03-20T13:44:26;18.40;1.00
41547;DHT22;27271;45.412;10.852;2023-03-20T13:47:51;18.90;1.00
41547;DHT22;27271;45.412;10.852;2023-03-20T13:51:27;19.30;1.00
41547;DHT22;27271;45.412;10.852;2023-03-20T13:55:06;19.60;1.00
41547;DHT22;27271;45.412;10.852;2023-03-20T13:58:58;19.50;1.00
41547;DHT22;27271;45.412;10.852;2023-03-20T14:02:32;19.40;1.00
41547;DHT22;27271;45.412;10.852;2023-03-20T14:05:56;19.70;1.00
41547;DHT22;27271;45.412;10.852;2023-03-20T14:09:35;19.80;1.00
41547;DHT22;27271;45.412;10.852;2023-03-20T14:13:05;19.70;1.00
41547;DHT22;27271;45.412;10.852;2023-03-20T14:16:28;19.60;1.00
41547;DHT22;27271;45.412;10.852;2023-03-20T14:19:52;19.10;1.00
41547;DHT22;27271;45.412;10.852;2023-03-20T14:23:19;19.30;1.00
41547;DHT22;27271;45.412;10.852;2023-03-20T14:26:42;19.10;1.00
41547;DHT22;27271;45.412;10.852;2023-03-20T14:34:19;18.80;1.00
41547;DHT22;27271;45.412;10.852;2023-03-20T14:48:52;19.40;1.00
41547;DHT22;27271;45.412;10.852;2023-03-20T14:59:16;18.40;1.00
41547;DHT22;27271;45.412;10.852;2023-03-20T15:02:41;18.10;1.00
41547;DHT22;27271;45.412;10.852;2023-03-20T15:06:08;18.30;1.00
41547;DHT22;27271;45.412;10.852;2023-03-20T15:09:34;18.40;1.00
41547;DHT22;27271;45.412;10.852;2023-03-20T15:12:57;18.10;1.00
41547;DHT22;27271;45.412;10.852;2023-03-20T15:16:28;18.10;1.00
41547;DHT22;27271;45.412;10.852;2023-03-20T15:19:50;18.10;1.00
41547;DHT22;27271;45.412;10.852;2023-03-20T15:23:19;18.10;1.00
41547;DHT22;27271;45.412;10.852;2023-03-20T15:26:42;18.10;1.00
41547;DHT22;27271;45.412;10.852;2023-03-20T15:30:04;18.00;1.00
41547;DHT22;27271;45.412;10.852;2023-03-20T15:33:35;17.80;1.00
41547;DHT22;27271;45.412;10.852;2023-03-20T15:37:02;17.90;1.00
41547;DHT22;27271;45.412;10.852;2023-03-20T15:40:29;17.90;1.00
41547;DHT22;27271;45.412;10.852;2023-03-20T15:44:25;18.00;1.00
41547;DHT22;27271;45.412;10.852;2023-03-20T15:47:47;17.90;1.00
41547;DHT22;27271;45.412;10.852;2023-03-20T15:51:10;17.80;1.00
41547;DHT22;27271;45.412;10.852;2023-03-20T15:54:34;17.40;1.00
41547;DHT22;27271;45.412;10.852;2023-03-20T15:58:00;17.10;1.00
41547;DHT22;27271;45.412;10.852;2023-03-20T16:01:24;16.90;1.00
41547;DHT22;27271;45.412;10.852;2023-03-20T16:04:51;16.90;1.00
41547;DHT22;27271;45.412;10.852;2023-03-20T16:08:23;16.80;1.00
41547;DHT22;27271;45.412;10.852;2023-03-20T16:11:54;16.80;1.00
41547;DHT22;27271;45.412;10.852;2023-03-20T16:15:17;16.70;1.00
41547;DHT22;27271;45.412;10.852;2023-03-20T16:18:40;16.40;1.00
41547;DHT22;27271;45.412;10.852;2023-03-20T16:25:42;16.00;1.00
41547;DHT22;27271;45.412;10.852;2023-03-20T16:29:04;16.00;1.00
41547;DHT22;27271;45.412;10.852;2023-03-20T16:32:33;16.00;1.00
41547;DHT22;27271;45.412;10.852;2023-03-20T16:35:56;16.10;1.00
41547;DHT22;27271;45.412;10.852;2023-03-20T16:39:23;16.00;1.00
41547;DHT22;27271;45.412;10.852;2023-03-20T16:42:46;15.90;1.00
41547;DHT22;27271;45.412;10.852;2023-03-20T16:46:08;15.80;1.00
41547;DHT22;27271;45.412;10.852;2023-03-20T16:49:50;15.70;1.00
41547;DHT22;27271;45.412;10.852;2023-03-20T16:53:16;15.50;1.00
41547;DHT22;27271;45.412;10.852;2023-03-20T16:56:42;15.40;1.00
41547;DHT22;27271;45.412;10.852;2023-03-20T17:00:42;15.30;1.00
41547;DHT22;27271;45.412;10.852;2023-03-20T17:04:18;15.30;1.00
41547;DHT22;27271;45.412;10.852;2023-03-20T17:07:41;15.00;1.00
41547;DHT22;27271;45.412;10.852;2023-03-20T17:11:09;14.80;1.00
41547;DHT22;27271;45.412;10.852;2023-03-20T17:14:32;14.50;1.00
41547;DHT22;27271;45.412;10.852;2023-03-20T17:17:54;14.30;1.00
41547;DHT22;27271;45.412;10.852;2023-03-20T17:21:17;14.00;1.00
41547;DHT22;27271;45.412;10.852;2023-03-20T17:24:39;13.90;1.00
41547;DHT22;27271;45.412;10.852;2023-03-20T17:28:02;13.80;1.00
41547;DHT22;27271;45.412;10.852;2023-03-20T17:31:24;13.60;1.00
41547;DHT22;27271;45.412;10.852;2023-03-20T17:34:47;13.50;1.00
41547;DHT22;27271;45.412;10.852;2023-03-20T17:38:20;13.40;6.00
41547;DHT22;27271;45.412;10.852;2023-03-20T17:41:44;13.20;27.90
41547;DHT22;27271;45.412;10.852;2023-03-20T17:45:11;13.00;62.30
41547;DHT22;27271;45.412;10.852;2023-03-20T17:48:37;12.90;89.30
41547;DHT22;27271;45.412;10.852;2023-03-20T17:52:01;12.80;92.10
41547;DHT22;27271;45.412;10.852;2023-03-20T17:55:23;12.70;95.40
41547;DHT22;27271;45.412;10.852;2023-03-20T17:58:45;12.60;99.90
41547;DHT22;27271;45.412;10.852;2023-03-20T18:02:08;12.50;99.90
41547;DHT22;27271;45.412;10.852;2023-03-20T18:05:31;12.40;99.90
41547;DHT22;27271;45.412;10.852;2023-03-20T18:08:56;12.30;99.90
41547;DHT22;27271;45.412;10.852;2023-03-20T18:12:20;12.30;99.90
41547;DHT22;27271;45.412;10.852;2023-03-20T18:15:42;12.10;99.90
41547;DHT22;27271;45.412;10.852;2023-03-20T18:19:08;11.90;99.90
41547;DHT22;27271;45.412;10.852;2023-03-20T18:22:31;11.80;99.90
41547;DHT22;27271;45.412;10.852;2023-03-20T18:25:54;11.70;99.90
41547;DHT22;27271;45.412;10.852;2023-03-20T18:29:17;11.60;99.90
41547;DHT22;27271;45.412;10.852;2023-03-20T18:32:40;11.40;99.90
41547;DHT22;27271;45.412;10.852;2023-03-20T18:36:03;11.30;1.00
41547;DHT22;27271;45.412;10.852;2023-03-20T18:39:26;11.30;1.00
41547;DHT22;27271;45.412;10.852;2023-03-20T18:42:48;11.20;1.00
41547;DHT22;27271;45.412;10.852;2023-03-20T18:46:22;11.00;1.00
41547;DHT22;27271;45.412;10.852;2023-03-20T18:49:44;11.00;1.00
41547;DHT22;27271;45.412;10.852;2023-03-20T18:53:08;11.00;74.30
41547;DHT22;27271;45.412;10.852;2023-03-20T18:56:34;11.00;67.50
41547;DHT22;27271;45.412;10.852;2023-03-20T18:59:58;10.90;99.90
41547;DHT22;27271;45.412;10.852;2023-03-20T19:03:23;10.90;99.90
41547;DHT22;27271;45.412;10.852;2023-03-20T19:06:46;10.80;99.90
41547;DHT22;27271;45.412;10.852;2023-03-20T19:13:50;10.70;99.90
41547;DHT22;27271;45.412;10.852;2023-03-20T19:17:13;10.70;1.00
41547;DHT22;27271;45.412;10.852;2023-03-20T19:20:41;10.70;1.00
41547;DHT22;27271;45.412;10.852;2023-03-20T19:24:05;10.60;1.00
41547;DHT22;27271;45.412;10.852;2023-03-20T19:27:28;10.60;13.40
41547;DHT22;27271;45.412;10.852;2023-03-20T19:30:54;10.50;99.90
41547;DHT22;27271;45.412;10.852;2023-03-20T19:34:17;10.40;99.90
41547;DHT22;27271;45.412;10.852;2023-03-20T19:38:01;10.30;99.90
41547;DHT22;27271;45.412;10.852;2023-03-20T19:41:24;10.20;99.90
41547;DHT22;27271;45.412;10.852;2023-03-20T19:44:49;10.20;99.90
41547;DHT22;27271;45.412;10.852;2023-03-20T19:51:40;10.00;99.90
41547;DHT22;27271;45.412;10.852;2023-03-20T19:55:03;10.00;99.90
41547;DHT22;27271;45.412;10.852;2023-03-20T19:58:25;9.90;99.90
41547;DHT22;27271;45.412;10.852;2023-03-20T20:01:47;9.80;99.90
41547;DHT22;27271;45.412;10.852;2023-03-20T20:05:24;9.80;99.90
41547;DHT22;27271;45.412;10.852;2023-03-20T20:08:47;9.70;99.90
41547;DHT22;27271;45.412;10.852;2023-03-20T20:12:10;9.60;99.90
41547;DHT22;27271;45.412;10.852;2023-03-20T20:15:32;9.60;1.00
41547;DHT22;27271;45.412;10.852;2023-03-20T20:18:59;9.50;1.00
41547;DHT22;27271;45.412;10.852;2023-03-20T20:22:21;9.50;1.00
41547;DHT22;27271;45.412;10.852;2023-03-20T20:25:48;9.50;1.00
41547;DHT22;27271;45.412;10.852;2023-03-20T20:29:10;9.40;1.00
41547;DHT22;27271;45.412;10.852;2023-03-20T20:32:34;9.30;1.00
41547;DHT22;27271;45.412;10.852;2023-03-20T20:35:56;9.30;1.00
41547;DHT22;27271;45.412;10.852;2023-03-20T20:39:39;9.30;1.00
41547;DHT22;27271;45.412;10.852;2023-03-20T20:43:01;9.30;1.00
41547;DHT22;27271;45.412;10.852;2023-03-20T20:46:31;9.30;1.00
41547;DHT22;27271;45.412;10.852;2023-03-20T20:49:53;9.20;1.00
41547;DHT22;27271;45.412;10.852;2023-03-20T20:53:15;9.30;1.00
41547;DHT22;27271;45.412;10.852;2023-03-20T20:56:37;9.20;1.00
41547;DHT22;27271;45.412;10.852;2023-03-20T20:59:59;9.20;1.00
41547;DHT22;27271;45.412;10.852;2023-03-20T21:03:21;9.10;1.00
41547;DHT22;27271;45.412;10.852;2023-03-20T21:06:43;9.00;1.00
41547;DHT22;27271;45.412;10.852;2023-03-20T21:10:25;8.90;18.10
41547;DHT22;27271;45.412;10.852;2023-03-20T21:13:50;8.90;38.60
41547;DHT22;27271;45.412;10.852;2023-03-20T21:17:12;8.80;20.20
41547;DHT22;27271;45.412;10.852;2023-03-20T21:20:34;8.70;18.20
41547;DHT22;27271;45.412;10.852;2023-03-20T21:23:56;8.60;51.50
41547;DHT22;27271;45.412;10.852;2023-03-20T21:27:19;8.50;46.90
41547;DHT22;27271;45.412;10.852;2023-03-20T21:30:42;8.50;62.00
41547;DHT22;27271;45.412;10.852;2023-03-20T21:34:24;8.50;90.50
41547;DHT22;27271;45.412;10.852;2023-03-20T21:37:47;8.40;99.90
41547;DHT22;27271;45.412;10.852;2023-03-20T21:41:29;8.40;99.90
41547;DHT22;27271;45.412;10.852;2023-03-20T21:44:52;8.50;99.90
41547;DHT22;27271;45.412;10.852;2023-03-20T21:48:34;8.40;99.90
41547;DHT22;27271;45.412;10.852;2023-03-20T21:52:16;8.30;99.90
41547;DHT22;27271;45.412;10.852;2023-03-20T21:55:59;8.20;99.90
41547;DHT22;27271;45.412;10.852;2023-03-20T21:59:41;8.20;99.90
41547;DHT22;27271;45.412;10.852;2023-03-20T22:03:28;8.10;99.90
41547;DHT22;27271;45.412;10.852;2023-03-20T22:07:10;8.10;99.90
41547;DHT22;27271;45.412;10.852;2023-03-20T22:10:52;8.10;99.90
41547;DHT22;27271;45.412;10.852;2023-03-20T22:14:34;8.00;99.90
41547;DHT22;27271;45.412;10.852;2023-03-20T22:18:16;8.00;99.90
41547;DHT22;27271;45.412;10.852;2023-03-20T22:21:58;7.90;99.90
41547;DHT22;27271;45.412;10.852;2023-03-20T22:25:40;7.80;99.90
41547;DHT22;27271;45.412;10.852;2023-03-20T22:29:22;7.80;99.90
41547;DHT22;27271;45.412;10.852;2023-03-20T22:33:04;7.80;99.90
41547;DHT22;27271;45.412;10.852;2023-03-20T22:36:46;7.70;99.90
41547;DHT22;27271;45.412;10.852;2023-03-20T22:40:28;7.70;99.90
41547;DHT22;27271;45.412;10.852;2023-03-20T22:44:11;7.70;99.90
41547;DHT22;27271;45.412;10.852;2023-03-20T22:47:53;7.70;99.90
41547;DHT22;27271;45.412;10.852;2023-03-20T22:51:15;7.60;99.90
41547;DHT22;27271;45.412;10.852;2023-03-20T22:54:40;7.50;99.90
41547;DHT22;27271;45.412;10.852;2023-03-20T22:58:03;7.40;99.90
41547;DHT22;27271;45.412;10.852;2023-03-20T23:01:29;7.40;99.90
41547;DHT22;27271;45.412;10.852;2023-03-20T23:04:51;7.40;99.90
41547;DHT22;27271;45.412;10.852;2023-03-20T23:08:16;7.40;99.90
41547;DHT22;27271;45.412;10.852;2023-03-20T23:11:39;7.30;99.90
41547;DHT22;27271;45.412;10.852;2023-03-20T23:15:02;7.30;99.90
41547;DHT22;27271;45.412;10.852;2023-03-20T23:18:24;7.30;99.90
41547;DHT22;27271;45.412;10.852;2023-03-20T23:21:46;7.20;99.90
41547;DHT22;27271;45.412;10.852;2023-03-20T23:25:09;7.20;99.90
41547;DHT22;27271;45.412;10.852;2023-03-20T23:28:49;7.10;99.90
41547;DHT22;27271;45.412;10.852;2023-03-20T23:32:12;7.10;99.90
41547;DHT22;27271;45.412;10.852;2023-03-20T23:35:34;7.10;99.90
41547;DHT22;27271;45.412;10.852;2023-03-20T23:38:56;7.10;99.90
41547;DHT22;27271;45.412;10.852;2023-03-20T23:42:18;7.10;99.90
41547;DHT22;27271;45.412;10.852;2023-03-20T23:45:51;7.10;99.90
41547;DHT22;27271;45.412;10.852;2023-03-20T23:49:13;7.00;99.90
41547;DHT22;27271;45.412;10.852;2023-03-20T23:52:36;7.00;99.90
41547;DHT22;27271;45.412;10.852;2023-03-20T23:56:06;7.00;99.90
41547;DHT22;27271;45.412;10.852;2023-03-20T23:59:29;7.10;99.90
